createdAt,value
2022-07-28T00:01:14.713Z,97.40
2022-07-28T00:03:48.795Z,97.50
2022-07-28T00:06:17.623Z,97.50
2022-07-28T00:08:45.772Z,97.50
2022-07-28T00:11:14.483Z,97.50
2022-07-28T00:13:43.197Z,97.50
2022-07-28T00:16:12.860Z,97.50
2022-07-28T00:18:41.790Z,97.60
2022-07-28T00:21:10.002Z,97.80
2022-07-28T00:23:39.034Z,98.00
2022-07-28T00:26:09.207Z,97.80
2022-07-28T00:28:37.835Z,97.80
2022-07-28T00:31:09.905Z,98.00
2022-07-28T00:33:43.302Z,98.00
2022-07-28T00:36:13.656Z,98.10
2022-07-28T00:38:43.933Z,98.30
2022-07-28T00:41:13.268Z,98.20
2022-07-28T00:43:44.342Z,98.30
2022-07-28T00:46:14.321Z,98.30
2022-07-28T00:48:47.745Z,98.20
2022-07-28T00:51:17.599Z,98.30
2022-07-28T00:53:47.699Z,98.30
2022-07-28T00:56:16.560Z,98.30
2022-07-28T00:58:44.859Z,98.40
2022-07-28T01:01:17.656Z,98.50
2022-07-28T01:03:53.182Z,98.40
2022-07-28T01:06:41.380Z,98.60
2022-07-28T01:09:26.908Z,98.70
2022-07-28T01:12:06.036Z,98.60
2022-07-28T01:14:41.328Z,98.50
2022-07-28T01:17:19.765Z,98.80
2022-07-28T01:20:05.893Z,98.90
2022-07-28T01:22:41.255Z,98.90
2022-07-28T01:25:25.147Z,99.20
2022-07-28T01:28:17.254Z,99.40
2022-07-28T01:30:51.439Z,99.30
2022-07-28T01:33:26.444Z,99.50
2022-07-28T01:36:02.971Z,99.50
2022-07-28T01:38:35.702Z,99.40
2022-07-28T01:41:05.203Z,99.40
2022-07-28T01:43:38.205Z,99.20
2022-07-28T01:46:10.123Z,99.20
2022-07-28T01:48:41.715Z,99.30
2022-07-28T01:51:12.589Z,99.30
2022-07-28T01:53:43.257Z,99.20
2022-07-28T01:56:12.815Z,99.20
2022-07-28T01:58:44.504Z,99.40
2022-07-28T02:01:17.565Z,99.10
2022-07-28T02:03:49.470Z,98.90
2022-07-28T02:06:20.994Z,98.70
2022-07-28T02:08:51.839Z,98.60
2022-07-28T02:11:38.388Z,98.90
2022-07-28T02:14:09.866Z,98.60
2022-07-28T02:16:45.599Z,98.40
2022-07-28T02:19:17.280Z,98.40
2022-07-28T02:21:47.910Z,98.20
2022-07-28T02:24:20.584Z,98.30
2022-07-28T02:26:56.951Z,98.40
2022-07-28T02:29:49.887Z,98.60
2022-07-28T02:32:26.940Z,98.40
2022-07-28T02:35:04.679Z,98.30
2022-07-28T02:37:39.903Z,98.20
2022-07-28T02:40:16.125Z,98.90
2022-07-28T02:42:49.873Z,98.90
2022-07-28T02:45:26.667Z,98.70
2022-07-28T02:48:02.855Z,98.50
2022-07-28T02:50:31.873Z,98.60
2022-07-28T02:53:14.932Z,98.40
2022-07-28T02:55:48.720Z,98.40
2022-07-28T02:58:21.413Z,98.30
2022-07-28T03:00:51.280Z,98.30
2022-07-28T03:03:23.573Z,98.30
2022-07-28T03:05:52.408Z,98.30
2022-07-28T03:08:20.983Z,98.60
2022-07-28T03:10:49.593Z,98.90
2022-07-28T03:13:17.725Z,99.00
2022-07-28T03:15:46.184Z,99.20
2022-07-28T03:18:14.349Z,99.20
2022-07-28T03:20:44.120Z,99.40
2022-07-28T03:23:12.602Z,99.20
2022-07-28T03:25:49.996Z,99.30
2022-07-28T03:28:22.328Z,99.30
2022-07-28T03:30:58.724Z,99.30
2022-07-28T03:33:27.596Z,99.30
2022-07-28T03:36:04.110Z,99.50
2022-07-28T03:38:44.200Z,99.90
2022-07-28T03:41:14.428Z,99.90
2022-07-28T03:43:44.076Z,99.90
2022-07-28T03:46:14.322Z,99.90
2022-07-28T03:48:42.843Z,99.90
2022-07-28T03:51:12.806Z,99.90
2022-07-28T03:53:43.249Z,99.90
2022-07-28T03:56:11.432Z,99.90
2022-07-28T03:58:39.840Z,99.90
2022-07-28T04:01:08.486Z,99.90
2022-07-28T04:03:43.586Z,99.90
2022-07-28T04:06:14.213Z,99.90
2022-07-28T04:08:43.422Z,99.90
2022-07-28T04:11:12.037Z,99.90
2022-07-28T04:13:40.643Z,99.90
2022-07-28T04:16:09.105Z,99.90
2022-07-28T04:18:37.530Z,99.90
2022-07-28T04:21:08.333Z,99.90
2022-07-28T04:23:37.882Z,99.90
2022-07-28T04:26:07.053Z,99.90
2022-07-28T04:28:35.395Z,99.90
2022-07-28T04:31:03.591Z,99.90
2022-07-28T04:33:32.668Z,99.90
2022-07-28T04:36:02.223Z,99.90
2022-07-28T04:38:30.856Z,99.90
2022-07-28T04:41:00.329Z,99.90
2022-07-28T04:43:28.519Z,99.90
2022-07-28T04:45:56.767Z,99.90
2022-07-28T04:48:25.778Z,99.90
2022-07-28T04:50:54.025Z,99.90
2022-07-28T04:53:23.009Z,99.90
2022-07-28T04:55:54.782Z,99.90
2022-07-28T04:58:25.343Z,99.90
2022-07-28T05:00:54.080Z,99.90
2022-07-28T05:03:22.488Z,99.90
2022-07-28T05:05:54.936Z,99.90
2022-07-28T05:08:26.208Z,99.90
2022-07-28T05:10:56.944Z,99.90
2022-07-28T05:13:33.263Z,99.90
2022-07-28T05:16:10.464Z,99.90
2022-07-28T05:18:38.861Z,99.90
2022-07-28T05:21:07.032Z,99.90
2022-07-28T05:23:35.707Z,99.90
2022-07-28T05:26:04.735Z,99.90
2022-07-28T05:28:34.353Z,99.90
2022-07-28T05:31:03.324Z,99.90
2022-07-28T05:33:32.126Z,99.90
2022-07-28T05:36:01.108Z,99.90
2022-07-28T05:38:31.498Z,99.90
2022-07-28T05:41:00.343Z,99.90
2022-07-28T05:43:28.467Z,99.90
2022-07-28T05:45:58.176Z,99.90
2022-07-28T05:48:26.597Z,99.90
2022-07-28T05:50:55.404Z,99.90
2022-07-28T05:53:23.611Z,99.90
2022-07-28T05:55:59.671Z,99.90
2022-07-28T05:58:32.048Z,99.90
2022-07-28T06:01:02.999Z,99.60
2022-07-28T06:03:39.982Z,99.90
2022-07-28T06:06:16.105Z,99.90
2022-07-28T06:08:46.904Z,99.90
2022-07-28T06:11:21.683Z,99.90
2022-07-28T06:13:52.854Z,99.90
2022-07-28T06:16:24.043Z,99.90
2022-07-28T06:18:52.771Z,99.90
2022-07-28T06:21:24.719Z,99.90
2022-07-28T06:23:53.280Z,99.90
2022-07-28T06:26:23.806Z,99.90
2022-07-28T06:28:52.942Z,99.90
2022-07-28T06:31:22.570Z,99.90
2022-07-28T06:33:51.454Z,99.90
2022-07-28T06:36:19.640Z,99.90
2022-07-28T06:38:49.138Z,99.90
2022-07-28T06:41:17.564Z,99.90
2022-07-28T06:43:46.050Z,99.30
2022-07-28T06:46:18.612Z,99.50
2022-07-28T06:48:49.706Z,98.90
2022-07-28T06:51:20.002Z,98.90
2022-07-28T06:53:49.586Z,98.90
2022-07-28T06:56:19.676Z,98.90
2022-07-28T06:58:49.950Z,98.90
2022-07-28T07:01:18.497Z,98.60
2022-07-28T07:03:47.283Z,98.10
2022-07-28T07:06:16.861Z,97.90
2022-07-28T07:08:45.309Z,97.70
2022-07-28T07:11:13.423Z,97.30
2022-07-28T07:13:42.003Z,97.40
2022-07-28T07:16:10.221Z,97.60
2022-07-28T07:18:38.377Z,97.40
2022-07-28T07:21:06.529Z,97.80
2022-07-28T07:23:36.416Z,97.60
2022-07-28T07:26:05.596Z,97.40
2022-07-28T07:28:34.893Z,97.40
2022-07-28T07:31:03.548Z,97.30
2022-07-28T07:33:32.293Z,97.30
2022-07-28T07:36:00.536Z,97.10
2022-07-28T07:38:29.401Z,97.10
2022-07-28T07:40:59.313Z,97.10
2022-07-28T07:43:27.616Z,97.20
2022-07-28T07:45:55.728Z,97.10
2022-07-28T07:48:23.947Z,97.00
2022-07-28T07:50:54.151Z,97.30
2022-07-28T07:53:22.888Z,96.80
2022-07-28T07:55:51.578Z,96.80
2022-07-28T07:58:21.411Z,97.10
2022-07-28T08:00:49.530Z,96.90
2022-07-28T08:03:22.374Z,96.90
2022-07-28T08:05:54.805Z,96.90
2022-07-28T08:08:24.640Z,96.60
2022-07-28T08:10:54.252Z,96.70
2022-07-28T08:13:24.364Z,96.50
2022-07-28T08:15:52.830Z,96.60
2022-07-28T08:18:21.487Z,96.50
2022-07-28T08:20:49.599Z,96.40
2022-07-28T08:23:21.579Z,96.50
2022-07-28T08:25:52.489Z,96.50
2022-07-28T08:28:20.755Z,96.50
2022-07-28T08:30:51.244Z,96.40
2022-07-28T08:33:22.232Z,96.80
2022-07-28T08:35:50.877Z,96.30
2022-07-28T08:38:20.143Z,96.20
2022-07-28T08:40:53.321Z,96.50
2022-07-28T08:43:33.382Z,96.20
2022-07-28T08:46:07.436Z,96.30
2022-07-28T08:48:38.179Z,96.40
2022-07-28T08:51:09.416Z,96.80
2022-07-28T08:53:40.494Z,96.00
2022-07-28T08:56:13.445Z,96.10
2022-07-28T08:58:41.953Z,96.20
2022-07-28T09:01:12.349Z,96.40
2022-07-28T09:03:40.943Z,96.40
2022-07-28T09:06:09.578Z,96.40
2022-07-28T09:08:38.680Z,95.80
2022-07-28T09:11:08.349Z,95.50
2022-07-28T09:13:38.415Z,95.60
2022-07-28T09:16:07.464Z,95.60
2022-07-28T09:18:37.536Z,95.90
2022-07-28T09:21:05.898Z,95.60
2022-07-28T09:23:44.725Z,95.40
2022-07-28T09:26:13.920Z,95.30
2022-07-28T09:28:51.244Z,95.10
2022-07-28T09:31:20.952Z,95.20
2022-07-28T09:34:02.869Z,95.10
2022-07-28T09:36:39.046Z,94.70
2022-07-28T09:39:08.184Z,94.50
2022-07-28T09:41:49.177Z,94.20
2022-07-28T09:44:20.621Z,94.40
2022-07-28T09:46:49.135Z,94.10
2022-07-28T09:49:19.021Z,94.10
2022-07-28T09:52:02.095Z,93.80
2022-07-28T09:54:30.626Z,94.10
2022-07-28T09:56:59.295Z,93.90
2022-07-28T09:59:40.304Z,93.90
2022-07-28T10:02:09.410Z,93.40
2022-07-28T10:04:43.341Z,93.80
2022-07-28T10:07:17.007Z,93.80
2022-07-28T10:09:56.474Z,93.60
2022-07-28T10:12:27.037Z,93.40
2022-07-28T10:14:59.429Z,93.50
2022-07-28T10:17:30.658Z,93.20
2022-07-28T10:20:03.392Z,92.70
2022-07-28T10:22:42.743Z,92.80
2022-07-28T10:25:13.728Z,92.70
2022-07-28T10:27:43.776Z,92.60
2022-07-28T10:30:14.931Z,92.00
2022-07-28T10:32:45.600Z,91.90
2022-07-28T10:35:18.980Z,91.40
2022-07-28T10:37:55.397Z,91.50
2022-07-28T10:40:30.159Z,91.00
2022-07-28T10:43:00.876Z,90.70
2022-07-28T10:48:20.645Z,91.00
2022-07-28T10:50:54.798Z,90.70
2022-07-28T10:53:39.609Z,90.50
2022-07-28T10:56:18.750Z,90.60
2022-07-28T10:59:00.250Z,90.90
2022-07-28T11:01:53.364Z,90.50
2022-07-28T11:04:59.166Z,90.40
2022-07-28T11:07:40.189Z,90.70
2022-07-28T11:10:18.929Z,90.80
2022-07-28T11:12:49.510Z,90.80
2022-07-28T11:15:33.547Z,90.50
2022-07-28T11:18:07.036Z,90.60
2022-07-28T11:21:16.334Z,90.80
2022-07-28T11:23:54.788Z,90.50
2022-07-28T11:26:46.151Z,90.50
2022-07-28T11:29:19.339Z,88.90
2022-07-28T11:32:04.928Z,88.00
2022-07-28T11:35:08.807Z,87.00
2022-07-28T11:38:10.623Z,84.00
2022-07-28T11:40:43.178Z,82.40
2022-07-28T11:43:37.670Z,81.70
2022-07-28T11:46:37.516Z,81.00
2022-07-28T11:49:22.214Z,80.70
2022-07-28T11:52:15.552Z,81.10
2022-07-28T11:54:54.806Z,80.30
2022-07-28T11:57:28.494Z,78.70
2022-07-28T12:00:03.441Z,78.40
2022-07-28T12:02:36.686Z,78.30
2022-07-28T12:05:13.216Z,78.00
2022-07-28T12:07:48.698Z,77.70
2022-07-28T12:10:53.839Z,77.60
2022-07-28T12:13:29.293Z,76.40
2022-07-28T12:15:58.294Z,77.30
2022-07-28T12:18:26.647Z,77.40
2022-07-28T12:20:55.875Z,78.40
2022-07-28T12:23:44.155Z,76.80
2022-07-28T12:26:31.776Z,76.10
2022-07-28T12:29:02.533Z,73.30
2022-07-28T12:31:37.861Z,72.50
2022-07-28T12:34:09.844Z,71.90
2022-07-28T12:36:39.706Z,69.40
2022-07-28T12:39:12.910Z,68.70
2022-07-28T12:41:41.477Z,67.80
2022-07-28T12:44:12.309Z,66.00
2022-07-28T12:46:49.139Z,66.20
2022-07-28T12:49:22.707Z,67.40
2022-07-28T12:51:51.400Z,69.20
2022-07-28T12:54:19.578Z,69.80
2022-07-28T12:56:49.943Z,70.90
2022-07-28T12:59:21.169Z,71.40
2022-07-28T13:01:52.446Z,71.90
2022-07-28T13:04:41.739Z,70.50
2022-07-28T13:07:13.527Z,71.00
2022-07-28T13:09:50.189Z,71.70
2022-07-28T13:12:30.927Z,71.80
2022-07-28T13:15:03.401Z,72.00
2022-07-28T13:17:51.133Z,71.80
2022-07-28T13:20:20.697Z,70.80
2022-07-28T13:22:49.004Z,70.40
2022-07-28T13:25:18.758Z,68.90
2022-07-28T13:27:52.227Z,68.70
2022-07-28T13:30:24.815Z,68.40
2022-07-28T13:32:54.645Z,68.90
2022-07-28T13:35:22.967Z,68.50
2022-07-28T13:37:51.272Z,69.70
2022-07-28T13:40:19.578Z,69.80
2022-07-28T13:42:53.254Z,70.40
2022-07-28T13:45:30.255Z,71.10
2022-07-28T13:47:58.614Z,71.40
2022-07-28T13:50:27.296Z,71.20
2022-07-28T13:52:55.670Z,71.30
2022-07-28T13:55:24.023Z,71.10
2022-07-28T13:57:56.391Z,70.50
2022-07-28T14:00:26.610Z,70.70
2022-07-28T14:02:55.055Z,68.80
2022-07-28T14:05:23.312Z,67.70
2022-07-28T14:07:51.671Z,66.60
2022-07-28T14:10:19.966Z,65.30
2022-07-28T14:12:54.885Z,64.70
2022-07-28T14:15:23.598Z,63.70
2022-07-28T14:17:53.525Z,63.10
2022-07-28T14:20:21.804Z,63.20
2022-07-28T14:22:52.007Z,61.70
2022-07-28T14:25:21.660Z,61.90
2022-07-28T14:27:51.130Z,60.70
2022-07-28T14:30:20.947Z,59.80
2022-07-28T14:32:49.393Z,59.70
2022-07-28T14:35:20.092Z,59.10
2022-07-28T14:40:39.539Z,59.40
2022-07-28T14:43:09.216Z,57.90
2022-07-28T14:46:00.432Z,57.50
2022-07-28T14:48:26.557Z,58.30
2022-07-28T14:50:57.106Z,59.00
2022-07-28T14:53:27.780Z,58.90
2022-07-28T14:55:56.450Z,58.90
2022-07-28T14:58:25.727Z,59.10
2022-07-28T15:00:54.470Z,59.10
2022-07-28T15:03:22.846Z,59.20
2022-07-28T15:05:51.098Z,59.50
2022-07-28T15:08:20.587Z,59.70
2022-07-28T15:10:54.635Z,60.40
2022-07-28T15:13:23.341Z,59.30
2022-07-28T15:15:51.712Z,58.70
2022-07-28T15:18:20.009Z,58.60
2022-07-28T15:20:49.716Z,58.80
2022-07-28T15:23:18.218Z,58.90
2022-07-28T15:25:47.833Z,59.90
2022-07-28T15:28:17.842Z,60.50
2022-07-28T15:30:51.442Z,61.10
2022-07-28T15:33:21.250Z,61.80
2022-07-28T15:35:56.560Z,61.40
2022-07-28T15:38:29.721Z,62.40
2022-07-28T15:41:01.950Z,62.60
2022-07-28T15:43:33.067Z,62.80
2022-07-28T15:46:09.838Z,63.00
2022-07-28T15:48:38.573Z,62.70
2022-07-28T15:51:07.391Z,62.60
2022-07-28T15:53:36.639Z,63.30
2022-07-28T15:56:07.027Z,63.50
2022-07-28T15:58:35.705Z,63.50
2022-07-28T16:01:04.904Z,63.30
2022-07-28T16:03:33.308Z,63.50
2022-07-28T16:06:01.702Z,63.20
2022-07-28T16:08:31.656Z,63.30
2022-07-28T16:10:59.807Z,64.00
2022-07-28T16:13:36.101Z,64.80
2022-07-28T16:16:08.365Z,65.90
2022-07-28T16:18:39.824Z,66.80
2022-07-28T16:21:09.349Z,67.60
2022-07-28T16:23:38.438Z,67.20
2022-07-28T16:26:09.147Z,67.30
2022-07-28T16:28:38.969Z,66.60
2022-07-28T16:31:08.220Z,66.30
2022-07-28T16:33:36.611Z,66.30
2022-07-28T16:36:05.683Z,65.80
2022-07-28T16:38:33.934Z,65.80
2022-07-28T16:41:02.022Z,66.00
2022-07-28T16:43:30.324Z,65.80
2022-07-28T16:46:00.412Z,65.60
2022-07-28T16:48:28.798Z,65.60
2022-07-28T16:50:57.214Z,65.40
2022-07-28T16:53:25.338Z,66.10
2022-07-28T16:55:53.851Z,66.40
2022-07-28T16:58:22.751Z,66.70
2022-07-28T17:00:51.540Z,66.40
2022-07-28T17:03:21.481Z,66.40
2022-07-28T17:05:50.369Z,66.80
2022-07-28T17:08:19.264Z,66.60
2022-07-28T17:10:48.095Z,66.40
2022-07-28T17:13:17.095Z,65.70
2022-07-28T17:15:45.299Z,66.10
2022-07-28T17:18:13.906Z,66.50
2022-07-28T17:20:48.543Z,67.60
2022-07-28T17:23:16.937Z,67.70
2022-07-28T17:26:16.165Z,66.90
2022-07-28T17:28:34.711Z,65.70
2022-07-28T17:31:03.406Z,66.20
2022-07-28T17:33:32.677Z,65.90
2022-07-28T17:36:02.746Z,66.30
2022-07-28T17:38:33.219Z,67.00
2022-07-28T17:41:03.781Z,67.00
2022-07-28T17:43:33.197Z,67.00
2022-07-28T17:46:02.909Z,66.70
2022-07-28T17:48:37.145Z,67.10
2022-07-28T17:51:07.183Z,67.40
2022-07-28T17:53:38.323Z,67.60
2022-07-28T17:56:08.664Z,68.00
2022-07-28T17:58:37.355Z,68.10
2022-07-28T18:01:12.319Z,67.90
2022-07-28T18:03:57.059Z,68.20
2022-07-28T18:06:34.105Z,68.10
2022-07-28T18:09:05.999Z,68.20
2022-07-28T18:11:56.055Z,68.00
2022-07-28T18:14:28.383Z,67.90
2022-07-28T18:16:57.836Z,67.90
2022-07-28T18:19:26.323Z,67.90
2022-07-28T18:21:57.138Z,68.00
2022-07-28T18:24:26.280Z,67.90
2022-07-28T18:26:55.009Z,68.50
2022-07-28T18:29:24.926Z,68.70
2022-07-28T18:31:53.799Z,69.20
2022-07-28T18:34:24.901Z,70.60
2022-07-28T18:36:55.763Z,70.90
2022-07-28T18:39:23.951Z,71.40
2022-07-28T18:41:55.462Z,71.80
2022-07-28T18:44:23.571Z,72.60
2022-07-28T18:46:52.520Z,72.80
2022-07-28T18:49:21.705Z,73.00
2022-07-28T18:51:50.382Z,73.10
2022-07-28T18:54:27.960Z,73.40
2022-07-28T18:56:57.068Z,73.60
2022-07-28T18:59:25.857Z,73.90
2022-07-28T19:01:54.395Z,74.60
2022-07-28T19:04:23.103Z,75.20
2022-07-28T19:06:52.193Z,74.90
2022-07-28T19:09:22.426Z,75.40
2022-07-28T19:11:50.641Z,75.90
2022-07-28T19:14:19.360Z,76.10
2022-07-28T19:16:48.124Z,76.80
2022-07-28T19:19:16.300Z,77.10
2022-07-28T19:21:44.619Z,77.40
2022-07-28T19:24:13.843Z,78.20
2022-07-28T19:26:47.300Z,79.60
2022-07-28T19:29:15.464Z,80.70
2022-07-28T19:31:43.863Z,80.80
2022-07-28T19:34:12.217Z,81.00
2022-07-28T19:36:41.592Z,81.60
2022-07-28T19:39:10.920Z,82.30
2022-07-28T19:41:39.131Z,82.50
2022-07-28T19:44:08.611Z,82.30
2022-07-28T19:46:36.865Z,82.50
2022-07-28T19:49:07.942Z,83.10
2022-07-28T19:51:36.791Z,83.10
2022-07-28T19:54:05.432Z,83.60
2022-07-28T19:56:33.834Z,83.70
2022-07-28T19:59:02.602Z,84.30
2022-07-28T20:01:32.987Z,84.30
2022-07-28T20:04:05.154Z,84.30
2022-07-28T20:06:34.628Z,84.50
2022-07-28T20:09:04.262Z,84.90
2022-07-28T20:11:33.737Z,84.90
2022-07-28T20:14:03.030Z,85.30
2022-07-28T20:16:32.767Z,86.50
2022-07-28T20:19:01.456Z,86.20
2022-07-28T20:21:29.818Z,86.50
2022-07-28T20:24:08.346Z,86.30
2022-07-28T20:26:36.540Z,87.00
2022-07-28T20:29:05.958Z,88.10
2022-07-28T20:31:36.829Z,85.60
2022-07-28T20:34:07.081Z,84.80
2022-07-28T20:36:36.015Z,85.30
2022-07-28T20:39:21.030Z,87.40
2022-07-28T20:41:53.256Z,88.50
2022-07-28T20:44:29.630Z,89.50
2022-07-28T20:47:00.749Z,90.20
2022-07-28T20:49:29.224Z,90.30
2022-07-28T20:51:58.653Z,90.70
2022-07-28T20:54:27.491Z,90.80
2022-07-28T20:56:56.074Z,91.10
2022-07-28T20:59:27.637Z,91.70
2022-07-28T21:01:58.013Z,92.20
2022-07-28T21:04:27.573Z,92.60
2022-07-28T21:07:02.067Z,93.00
2022-07-28T21:09:32.172Z,93.40
2022-07-28T21:12:00.473Z,93.70
2022-07-28T21:14:28.604Z,94.20
2022-07-28T21:16:57.436Z,94.30
2022-07-28T21:19:27.025Z,94.60
2022-07-28T21:21:55.572Z,94.60
2022-07-28T21:24:23.865Z,94.90
2022-07-28T21:26:53.843Z,95.10
2022-07-28T21:32:03.850Z,95.50
2022-07-28T21:34:35.773Z,95.90
2022-07-28T21:37:05.832Z,96.10
2022-07-28T21:39:35.780Z,96.40
2022-07-28T21:42:07.784Z,96.70
2022-07-28T21:44:37.709Z,96.90
2022-07-28T21:47:06.410Z,97.20
2022-07-28T21:49:36.720Z,97.20
2022-07-28T21:52:05.384Z,97.50
2022-07-28T21:54:33.950Z,97.70
2022-07-28T21:57:02.437Z,97.80
2022-07-28T21:59:30.616Z,97.90
2022-07-28T22:01:58.758Z,98.10
2022-07-28T22:04:26.990Z,98.30
2022-07-28T22:06:56.572Z,98.40
2022-07-28T22:09:25.361Z,98.50
2022-07-28T22:11:53.764Z,98.60
2022-07-28T22:14:21.958Z,98.70
2022-07-28T22:16:50.532Z,98.70
2022-07-28T22:19:18.765Z,98.80
2022-07-28T22:21:47.851Z,98.90
2022-07-28T22:24:18.140Z,99.20
2022-07-28T22:26:46.596Z,99.50
2022-07-28T22:29:15.397Z,99.60
2022-07-28T22:31:44.096Z,99.90
2022-07-28T22:34:12.829Z,99.90
2022-07-28T22:36:41.480Z,99.90
2022-07-28T22:39:09.649Z,99.90
2022-07-28T22:41:39.563Z,99.90
2022-07-28T22:44:10.159Z,99.90
2022-07-28T22:46:39.259Z,99.90
2022-07-28T22:49:07.486Z,99.90
2022-07-28T22:51:35.738Z,99.90
2022-07-28T22:54:04.691Z,99.90
2022-07-28T22:56:36.325Z,99.90
2022-07-28T22:59:07.675Z,99.90
2022-07-28T23:01:37.199Z,99.90
2022-07-28T23:04:05.879Z,99.90
2022-07-28T23:06:36.308Z,99.90
2022-07-28T23:09:05.060Z,99.90
2022-07-28T23:11:33.156Z,99.90
2022-07-28T23:14:01.605Z,99.90
2022-07-28T23:16:31.554Z,99.90
2022-07-28T23:19:00.385Z,99.90
2022-07-28T23:21:28.828Z,99.90
2022-07-28T23:23:57.194Z,99.90
2022-07-28T23:26:25.348Z,99.90
2022-07-28T23:28:54.121Z,99.90
2022-07-28T23:31:22.588Z,99.90
2022-07-28T23:33:56.186Z,99.90
2022-07-28T23:36:27.400Z,99.90
2022-07-28T23:38:57.551Z,99.90
2022-07-28T23:41:27.074Z,99.90
2022-07-28T23:43:55.998Z,99.90
2022-07-28T23:46:24.898Z,99.90
2022-07-28T23:48:54.524Z,99.90
2022-07-28T23:51:31.938Z,99.90
2022-07-28T23:54:11.209Z,99.90
2022-07-28T23:56:43.108Z,99.90
2022-07-28T23:59:14.118Z,99.90
